Time;durP1;ratioP1;P1;durP2;ratioP2;P2;SDS_P1;SDS_P2;PMS_P1;PMS_P2;Temp;Humidity;BMP_temperature;BMP_pressure;BME280_temperature;BME280_humidity;BME280_pressure;Samples;Min_cycle;Max_cycle;Signal;HPM_P1;HPM_P2
2021/08/19 00:00:08;;;;;;;;;12.00;12.00;34.20;18.40;;;;;;687801;28;7101;-78
2021/08/19 00:00:29;;;;;;;;;10.60;10.60;34.20;18.30;;;;;;687849;28;6103;-78
2021/08/19 00:00:50;;;;;;;;;12.75;11.75;34.20;18.30;;;;;;688040;28;6020;-78
2021/08/19 00:01:11;;;;;;;;;15.60;14.60;34.20;18.30;;;;;;688046;28;5995;-78
2021/08/19 00:01:33;;;;;;;;;16.60;15.40;34.20;18.40;;;;;;688159;28;6011;-79
2021/08/19 00:01:56;;;;;;;;;12.00;11.00;34.20;18.30;;;;;;687051;28;6534;-79
2021/08/19 00:02:17;;;;;;;;;12.60;12.40;34.20;18.40;;;;;;687534;28;7446;-79
2021/08/19 00:02:38;;;;;;;;;13.75;12.50;34.20;19.10;;;;;;687605;28;5797;-77
2021/08/19 00:02:58;;;;;;;;;11.20;9.60;34.20;18.30;;;;;;688103;28;5984;-79
2021/08/19 00:03:19;;;;;;;;;9.40;9.40;34.20;18.30;;;;;;687900;28;5969;-78
2021/08/19 00:03:40;;;;;;;;;8.25;8.25;34.20;18.20;;;;;;687761;28;6584;-80
2021/08/19 00:04:02;;;;;;;;;11.25;10.25;34.20;18.30;;;;;;687984;28;5844;-77
2021/08/19 00:04:23;;;;;;;;;13.00;12.00;34.20;18.10;;;;;;687960;28;6600;-80
2021/08/19 00:04:44;;;;;;;;;13.00;12.00;34.20;18.10;;;;;;687744;28;5888;-80
2021/08/19 00:05:05;;;;;;;;;13.00;12.25;34.20;18.30;;;;;;687827;28;5977;-77
2021/08/19 00:05:26;;;;;;;;;13.00;13.00;34.30;18.30;;;;;;688428;28;5837;-79
2021/08/19 00:05:46;;;;;;;;;11.00;11.00;34.20;18.10;;;;;;688016;28;6067;-78
2021/08/19 00:06:07;;;;;;;;;14.00;13.00;34.30;18.40;;;;;;687804;28;6018;-77
2021/08/19 00:06:28;;;;;;;;;13.50;13.50;34.20;18.30;;;;;;688018;28;6119;-79
2021/08/19 00:06:49;;;;;;;;;10.40;10.40;34.20;18.40;;;;;;687887;28;6049;-78
2021/08/19 00:07:10;;;;;;;;;10.25;10.25;34.20;18.30;;;;;;687886;28;7058;-80
2021/08/19 00:07:30;;;;;;;;;12.00;12.00;34.20;18.30;;;;;;688190;28;6458;-79
2021/08/19 00:07:51;;;;;;;;;12.60;12.00;34.20;18.30;;;;;;687829;28;5884;-80
2021/08/19 00:08:12;;;;;;;;;10.00;10.00;34.20;18.20;;;;;;687469;28;6001;-79
2021/08/19 00:08:33;;;;;;;;;12.00;12.00;34.20;18.30;;;;;;688341;28;5871;-79
2021/08/19 00:08:54;;;;;;;;;14.00;12.75;34.20;18.40;;;;;;687787;28;5886;-79
2021/08/19 00:09:14;;;;;;;;;14.00;12.00;34.20;18.40;;;;;;687635;28;5935;-78
2021/08/19 00:09:38;;;;;;;;;10.20;9.60;34.20;18.30;;;;;;688430;28;5893;-80
2021/08/19 00:09:59;;;;;;;;;11.00;11.00;34.20;18.50;;;;;;687747;28;6497;-79
2021/08/19 00:10:20;;;;;;;;;11.75;11.75;34.20;18.40;;;;;;688214;28;5893;-80
2021/08/19 00:10:40;;;;;;;;;11.80;10.80;34.20;18.30;;;;;;687812;28;6102;-80
2021/08/19 00:11:01;;;;;;;;;11.00;10.00;34.20;18.30;;;;;;687972;28;6082;-79
2021/08/19 00:11:22;;;;;;;;;12.00;12.00;34.20;18.40;;;;;;685265;28;7104;-79
2021/08/19 00:11:43;;;;;;;;;13.00;12.00;34.20;18.30;;;;;;685076;28;6123;-80
2021/08/19 00:12:08;;;;;;;;;10.60;10.20;34.20;18.40;;;;;;685094;28;6265;-79
2021/08/19 00:12:28;;;;;;;;;12.25;12.25;34.20;18.50;;;;;;684764;28;6664;-79
2021/08/19 00:12:49;;;;;;;;;12.25;10.50;34.20;18.40;;;;;;684928;28;6023;-79
2021/08/19 00:13:10;;;;;;;;;11.75;11.00;34.20;18.40;;;;;;686162;28;6012;-80
2021/08/19 00:13:31;;;;;;;;;12.80;12.20;34.20;18.40;;;;;;688042;28;6039;-79
2021/08/19 00:13:51;;;;;;;;;12.20;10.60;34.20;18.40;;;;;;687928;28;5956;-79
2021/08/19 00:14:12;;;;;;;;;12.00;12.00;34.20;18.30;;;;;;688192;28;6683;-79
2021/08/19 00:14:37;;;;;;;;;15.00;13.50;34.20;18.40;;;;;;688161;28;5879;-79
2021/08/19 00:14:58;;;;;;;;;12.75;12.75;34.20;18.40;;;;;;687848;28;7336;-80
2021/08/19 00:15:18;;;;;;;;;12.00;12.00;34.20;18.30;;;;;;684692;28;6756;-78
2021/08/19 00:15:39;;;;;;;;;12.50;12.00;34.20;18.50;;;;;;684761;28;6636;-79
2021/08/19 00:16:00;;;;;;;;;12.60;11.00;34.20;18.50;;;;;;684948;28;7274;-79
2021/08/19 00:16:21;;;;;;;;;13.00;13.00;34.20;18.40;;;;;;685231;28;5942;-78
2021/08/19 00:16:42;;;;;;;;;12.75;10.50;34.20;18.60;;;;;;685148;28;5553;-79
2021/08/19 00:17:04;;;;;;;;;12.40;10.80;34.20;18.50;;;;;;684794;28;6189;-79
2021/08/19 00:17:24;;;;;;;;;13.80;12.80;34.10;18.40;;;;;;687735;28;5936;-80
2021/08/19 00:17:45;;;;;;;;;12.50;12.00;34.20;18.60;;;;;;687894;28;5983;-79
2021/08/19 00:18:06;;;;;;;;;12.00;12.00;34.20;18.50;;;;;;688235;28;5804;-80
2021/08/19 00:18:27;;;;;;;;;13.50;11.50;34.20;18.60;;;;;;687912;28;5967;-79
2021/08/19 00:18:50;;;;;;;;;14.00;11.25;34.20;18.60;;;;;;687630;28;6548;-79
2021/08/19 00:19:11;;;;;;;;;12.00;11.00;34.20;18.60;;;;;;687562;28;6078;-80
2021/08/19 00:19:32;;;;;;;;;11.20;11.20;34.20;18.50;;;;;;687962;28;5954;-80
2021/08/19 00:19:52;;;;;;;;;13.00;13.00;34.20;18.70;;;;;;687513;28;6127;-79
2021/08/19 00:20:13;;;;;;;;;13.00;13.00;34.20;18.60;;;;;;688044;28;5886;-80
2021/08/19 00:20:34;;;;;;;;;12.00;12.00;34.20;18.60;;;;;;688171;28;5931;-81
2021/08/19 00:20:55;;;;;;;;;13.25;11.00;34.20;18.50;;;;;;687993;28;5950;-80
2021/08/19 00:21:16;;;;;;;;;11.20;10.00;34.20;18.60;;;;;;687966;28;6572;-80
2021/08/19 00:21:37;;;;;;;;;10.50;10.00;34.20;18.60;;;;;;688626;28;6703;-82
2021/08/19 00:21:57;;;;;;;;;12.00;12.00;34.10;18.50;;;;;;688254;28;6117;-78
2021/08/19 00:22:18;;;;;;;;;12.50;12.25;34.20;19.40;;;;;;688531;28;5909;-79
2021/08/19 00:22:39;;;;;;;;;12.60;11.00;34.10;18.50;;;;;;688416;28;6005;-79
2021/08/19 00:23:01;;;;;;;;;13.00;13.00;34.20;18.60;;;;;;688110;28;6882;-77
2021/08/19 00:23:22;;;;;;;;;13.00;11.25;34.20;18.60;;;;;;687714;28;6275;-78
2021/08/19 00:23:43;;;;;;;;;13.00;11.00;34.20;18.60;;;;;;687661;28;5919;-79
2021/08/19 00:24:04;;;;;;;;;11.25;11.00;34.20;18.70;;;;;;688161;28;6666;-78
2021/08/19 00:24:25;;;;;;;;;11.25;11.25;34.20;18.70;;;;;;687895;28;6779;-80
2021/08/19 00:24:45;;;;;;;;;16.00;14.00;34.20;18.70;;;;;;688497;28;5946;-80
2021/08/19 00:25:07;;;;;;;;;12.00;11.80;34.20;19.60;;;;;;688246;28;5914;-78
2021/08/19 00:25:29;;;;;;;;;16.00;12.40;34.20;18.60;;;;;;687868;28;5992;-79
2021/08/19 00:25:50;;;;;;;;;16.00;14.60;34.10;18.80;;;;;;688023;28;6835;-79
2021/08/19 00:26:11;;;;;;;;;11.00;10.00;34.10;18.70;;;;;;688796;28;5953;-77
2021/08/19 00:26:32;;;;;;;;;11.00;11.00;34.20;18.70;;;;;;687900;28;5842;-79
2021/08/19 00:26:53;;;;;;;;;10.00;10.00;34.20;18.80;;;;;;688347;28;5952;-78
2021/08/19 00:27:14;;;;;;;;;14.00;11.50;34.10;18.70;;;;;;689132;28;6112;-77
2021/08/19 00:27:35;;;;;;;;;12.33;10.67;34.20;18.80;;;;;;687767;28;5838;-77
2021/08/19 00:27:55;;;;;;;;;11.40;11.40;34.10;18.70;;;;;;689122;28;7323;-79
2021/08/19 00:28:16;;;;;;;;;11.00;10.00;34.10;18.70;;;;;;688351;28;6425;-79
2021/08/19 00:28:37;;;;;;;;;10.80;9.20;34.10;18.70;;;;;;687654;28;6296;-77
2021/08/19 00:28:58;;;;;;;;;13.00;10.60;34.20;18.80;;;;;;688370;28;5962;-80
2021/08/19 00:29:18;;;;;;;;;11.75;11.75;34.10;18.80;;;;;;689335;28;6024;-79
2021/08/19 00:29:39;;;;;;;;;11.80;11.00;34.10;18.80;;;;;;688818;28;5927;-79
2021/08/19 00:30:00;;;;;;;;;13.25;12.00;34.10;19.00;;;;;;685204;28;5829;-80
2021/08/19 00:30:21;;;;;;;;;12.25;12.25;34.10;19.00;;;;;;684610;28;5979;-79
2021/08/19 00:30:41;;;;;;;;;18.00;12.80;34.10;19.10;;;;;;683956;28;6684;-79
2021/08/19 00:31:02;;;;;;;;;13.00;12.00;34.10;19.30;;;;;;683870;28;6131;-80
2021/08/19 00:31:24;;;;;;;;;12.75;12.00;34.10;19.10;;;;;;683845;28;6895;-79
2021/08/19 00:31:44;;;;;;;;;11.00;10.60;34.10;19.30;;;;;;684535;28;5995;-79
2021/08/19 00:32:05;;;;;;;;;9.33;9.33;34.10;19.30;;;;;;687045;28;5855;-80
2021/08/19 00:32:27;;;;;;;;;11.20;11.20;34.10;19.30;;;;;;687293;28;6568;-79
2021/08/19 00:32:48;;;;;;;;;11.75;11.75;34.10;19.30;;;;;;687126;28;5912;-79
2021/08/19 00:33:10;;;;;;;;;10.50;10.50;34.10;19.30;;;;;;686946;28;5831;-79
2021/08/19 00:33:31;;;;;;;;;10.60;10.60;34.10;19.20;;;;;;687144;28;8847;-78
2021/08/19 00:33:52;;;;;;;;;14.60;11.60;34.10;19.20;;;;;;687193;28;6026;-80
2021/08/19 00:34:13;;;;;;;;;10.50;10.25;34.10;19.20;;;;;;686985;28;5874;-79
2021/08/19 00:34:33;;;;;;;;;10.00;10.00;34.20;19.30;;;;;;687376;28;5975;-77
2021/08/19 00:34:54;;;;;;;;;11.00;9.00;34.10;19.20;;;;;;687625;28;5984;-78
2021/08/19 00:35:15;;;;;;;;;9.25;9.25;34.20;19.20;;;;;;688012;28;5909;-77
2021/08/19 00:35:36;;;;;;;;;11.00;10.00;34.10;19.10;;;;;;687838;28;5861;-78
2021/08/19 00:35:57;;;;;;;;;11.80;11.40;34.10;19.10;;;;;;687152;28;6000;-79
2021/08/19 00:36:17;;;;;;;;;11.40;9.80;34.20;19.10;;;;;;687429;28;5947;-78
2021/08/19 00:36:39;;;;;;;;;12.25;11.00;34.20;19.10;;;;;;687485;28;5954;-78
2021/08/19 00:37:00;;;;;;;;;12.40;11.00;34.20;19.10;;;;;;686794;28;7595;-79
2021/08/19 00:37:20;;;;;;;;;13.50;13.50;34.20;19.20;;;;;;687296;28;5896;-79
2021/08/19 00:37:41;;;;;;;;;10.80;10.80;34.20;19.20;;;;;;683852;28;5998;-80
2021/08/19 00:38:02;;;;;;;;;11.67;10.67;34.10;19.20;;;;;;683917;28;5977;-79
2021/08/19 00:38:23;;;;;;;;;12.00;10.00;34.20;19.20;;;;;;683891;28;5958;-79
2021/08/19 00:38:47;;;;;;;;;14.33;13.67;34.10;19.10;;;;;;684221;28;5892;-78
2021/08/19 00:39:08;;;;;;;;;11.25;11.25;34.20;19.20;;;;;;683859;28;6701;-80
2021/08/19 00:39:30;;;;;;;;;9.50;8.75;34.10;19.10;;;;;;685562;28;5973;-77
2021/08/19 00:39:51;;;;;;;;;10.60;10.00;34.20;19.20;;;;;;684534;28;8556;-79
2021/08/19 00:40:12;;;;;;;;;12.25;10.25;34.10;19.10;;;;;;684043;28;6095;-80
2021/08/19 00:40:33;;;;;;;;;12.00;10.00;34.20;19.20;;;;;;685119;28;6107;-80
2021/08/19 00:40:54;;;;;;;;;12.25;10.00;34.20;19.30;;;;;;684320;28;6066;-80
2021/08/19 00:41:15;;;;;;;;;11.00;11.00;34.20;19.30;;;;;;684180;28;6601;-81
2021/08/19 00:41:36;;;;;;;;;11.00;11.00;34.20;19.20;;;;;;682069;28;6036;-80
2021/08/19 00:41:58;;;;;;;;;12.00;11.20;34.20;19.20;;;;;;684385;28;6800;-80
2021/08/19 00:42:19;;;;;;;;;13.00;12.25;34.20;19.20;;;;;;684914;28;6284;-82
2021/08/19 00:42:40;;;;;;;;;10.00;10.00;34.10;19.10;;;;;;685000;28;6120;-79
2021/08/19 00:43:04;;;;;;;;;11.00;11.00;34.20;19.20;;;;;;684999;28;6474;-81
2021/08/19 00:43:24;;;;;;;;;11.40;11.40;34.20;19.20;;;;;;685222;28;6784;-79
2021/08/19 00:43:45;;;;;;;;;10.75;10.25;34.20;19.30;;;;;;687387;28;5933;-79
2021/08/19 00:44:06;;;;;;;;;9.50;9.50;34.20;19.30;;;;;;687355;28;6619;-79
2021/08/19 00:44:27;;;;;;;;;11.25;11.00;34.20;19.30;;;;;;688694;28;5891;-79
2021/08/19 00:44:48;;;;;;;;;12.75;11.75;34.20;19.30;;;;;;688740;28;5794;-80
2021/08/19 00:45:09;;;;;;;;;11.80;11.20;34.20;19.20;;;;;;687304;28;5962;-81
2021/08/19 00:45:31;;;;;;;;;11.00;11.00;34.20;19.20;;;;;;687626;28;5774;-80
2021/08/19 00:45:52;;;;;;;;;12.00;11.00;34.20;19.30;;;;;;688056;28;6426;-80
2021/08/19 00:46:34;;;;;;;;;11.00;11.00;34.20;19.30;;;;;;687870;28;5937;-80
2021/08/19 00:46:57;;;;;;;;;11.00;11.00;34.20;19.40;;;;;;684504;28;6525;-79
2021/08/19 00:47:18;;;;;;;;;12.50;12.00;34.20;19.30;;;;;;683942;28;7617;-79
2021/08/19 00:47:40;;;;;;;;;11.00;10.00;34.20;19.30;;;;;;685449;28;5850;-79
2021/08/19 00:48:01;;;;;;;;;12.20;12.20;34.20;19.40;;;;;;684578;28;6811;-80
2021/08/19 00:48:21;;;;;;;;;11.00;11.00;34.20;19.40;;;;;;683896;28;6825;-79
2021/08/19 00:48:44;;;;;;;;;10.00;10.00;34.20;19.30;;;;;;685315;28;5489;-79
2021/08/19 00:49:10;;;;;;;;;13.00;12.00;34.20;19.40;;;;;;687894;28;6187;-79
2021/08/19 00:49:30;;;;;;;;;10.60;10.00;34.20;19.30;;;;;;686788;28;7418;-80
2021/08/19 00:49:52;;;;;;;;;8.25;7.25;34.20;19.30;;;;;;687893;28;6008;-80
2021/08/19 00:50:13;;;;;;;;;11.50;10.50;34.20;19.30;;;;;;687430;28;6955;-78
2021/08/19 00:50:36;;;;;;;;;9.40;9.00;34.20;19.40;;;;;;685311;28;6629;-79
2021/08/19 00:50:59;;;;;;;;;10.40;9.40;34.20;19.30;;;;;;684692;28;6117;-79
2021/08/19 00:51:20;;;;;;;;;9.20;9.20;34.20;19.30;;;;;;684556;28;6425;-80
2021/08/19 00:51:46;;;;;;;;;11.00;11.00;34.20;19.30;;;;;;684769;28;6047;-80
2021/08/19 00:52:07;;;;;;;;;12.00;11.00;34.20;19.30;;;;;;685125;28;6334;-78
2021/08/19 00:52:29;;;;;;;;;11.00;10.00;34.20;19.30;;;;;;686172;28;6889;-81
2021/08/19 00:52:51;;;;;;;;;12.00;11.50;34.20;19.30;;;;;;687093;28;6080;-80
2021/08/19 00:53:12;;;;;;;;;11.60;11.60;34.20;19.30;;;;;;688242;28;6276;-80
2021/08/19 00:53:32;;;;;;;;;11.40;11.40;34.20;19.30;;;;;;688080;28;6052;-79
2021/08/19 00:53:57;;;;;;;;;11.00;10.60;34.20;19.30;;;;;;687335;28;5998;-79
2021/08/19 00:54:23;;;;;;;;;8.00;7.50;34.20;19.30;;;;;;686654;28;6696;-79
2021/08/19 00:54:43;;;;;;;;;14.25;12.25;34.20;19.30;;;;;;687542;28;6669;-78
2021/08/19 00:55:05;;;;;;;;;10.50;9.75;34.20;19.40;;;;;;687368;28;5977;-78
2021/08/19 00:55:26;;;;;;;;;15.40;14.40;34.20;19.30;;;;;;688715;28;6055;-78
2021/08/19 00:55:49;;;;;;;;;11.25;10.25;34.20;19.30;;;;;;688941;28;6211;-82
2021/08/19 00:56:11;;;;;;;;;12.00;11.00;34.20;19.30;;;;;;687993;28;6535;-78
2021/08/19 00:56:32;;;;;;;;;12.00;10.20;34.20;19.40;;;;;;687350;28;6138;-79
2021/08/19 00:56:56;;;;;;;;;9.20;9.20;34.20;19.40;;;;;;688605;28;6037;-79
2021/08/19 00:57:17;;;;;;;;;10.50;9.75;34.20;19.40;;;;;;687948;28;7001;-79
2021/08/19 00:57:42;;;;;;;;;11.75;11.75;34.20;19.60;;;;;;686937;28;6006;-79
2021/08/19 00:58:03;;;;;;;;;9.00;9.00;34.30;19.40;;;;;;686984;28;6235;-80
2021/08/19 00:58:24;;;;;;;;;11.25;11.25;34.20;19.40;;;;;;686874;28;7512;-80
2021/08/19 00:58:45;;;;;;;;;11.50;10.00;34.20;19.40;;;;;;687255;28;6022;-78
2021/08/19 00:59:36;;;;;;;;;11.25;11.00;34.20;19.40;;;;;;687111;28;5936;-80
2021/08/19 00:59:58;;;;;;;;;10.50;10.00;34.20;19.40;;;;;;673575;29;6689;-79
2021/08/19 01:00:19;;;;;;;;;13.00;12.00;34.20;19.50;;;;;;674067;29;6368;-78
2021/08/19 01:00:43;;;;;;;;;12.00;11.40;34.30;19.60;;;;;;673615;29;6487;-78
2021/08/19 01:01:04;;;;;;;;;12.80;11.00;34.20;19.40;;;;;;673390;29;6686;-79
2021/08/19 01:01:26;;;;;;;;;13.20;11.00;34.20;19.40;;;;;;673974;29;6098;-78
2021/08/19 01:01:46;;;;;;;;;11.40;11.40;34.30;19.40;;;;;;674585;29;6159;-78
2021/08/19 01:02:08;;;;;;;;;12.40;11.00;34.30;19.40;;;;;;674037;29;6139;-80
2021/08/19 01:02:29;;;;;;;;;13.00;12.00;34.30;19.50;;;;;;674161;29;6161;-78
2021/08/19 01:02:53;;;;;;;;;11.67;10.00;34.30;19.40;;;;;;674240;29;6420;-80
2021/08/19 01:03:14;;;;;;;;;11.80;10.80;34.30;19.40;;;;;;675029;29;6356;-80
2021/08/19 01:03:35;;;;;;;;;10.80;9.20;34.30;20.30;;;;;;673461;29;6611;-78
2021/08/19 01:03:56;;;;;;;;;10.25;9.25;34.30;19.40;;;;;;674018;29;6107;-78
2021/08/19 01:04:17;;;;;;;;;9.00;9.00;34.30;19.40;;;;;;674221;29;5974;-81
2021/08/19 01:04:41;;;;;;;;;9.60;9.60;34.30;19.50;;;;;;675035;29;6599;-80
2021/08/19 01:05:05;;;;;;;;;11.20;11.20;34.30;19.50;;;;;;673819;29;6368;-79
2021/08/19 01:05:28;;;;;;;;;10.00;8.60;34.30;19.40;;;;;;675257;29;6843;-80
2021/08/19 01:05:49;;;;;;;;;9.80;9.80;34.30;19.50;;;;;;675743;29;6591;-79
2021/08/19 01:06:09;;;;;;;;;8.00;8.00;34.30;19.50;;;;;;673647;29;6598;-81
2021/08/19 01:06:30;;;;;;;;;10.00;10.00;34.30;19.60;;;;;;675845;29;6173;-80
2021/08/19 01:06:51;;;;;;;;;10.00;10.00;34.30;19.60;;;;;;675768;29;6066;-78
2021/08/19 01:07:16;;;;;;;;;9.60;9.60;34.30;19.50;;;;;;675746;29;6261;-81
2021/08/19 01:07:36;;;;;;;;;12.25;12.00;34.30;19.50;;;;;;674961;29;6341;-81
2021/08/19 01:08:01;;;;;;;;;14.50;11.00;34.30;19.50;;;;;;676154;29;6160;-80
2021/08/19 01:08:21;;;;;;;;;10.50;10.00;34.30;19.40;;;;;;677689;29;6259;-80
2021/08/19 01:08:42;;;;;;;;;11.00;11.00;34.30;19.40;;;;;;673547;29;6117;-80
2021/08/19 01:09:07;;;;;;;;;12.00;9.75;34.30;19.40;;;;;;673198;29;6128;-81
2021/08/19 01:09:29;;;;;;;;;11.50;10.50;34.30;19.40;;;;;;673603;29;6164;-79
2021/08/19 01:09:55;;;;;;;;;9.00;9.00;34.30;19.40;;;;;;675576;29;6328;-80
2021/08/19 01:10:16;;;;;;;;;13.00;11.60;34.30;19.50;;;;;;675789;29;6329;-81
2021/08/19 01:10:37;;;;;;;;;10.80;10.40;34.30;19.40;;;;;;675705;29;6726;-80
2021/08/19 01:10:58;;;;;;;;;11.00;11.00;34.30;19.50;;;;;;675946;29;6706;-78
2021/08/19 01:11:20;;;;;;;;;10.00;9.00;34.30;19.50;;;;;;675660;29;6852;-80
2021/08/19 01:11:45;;;;;;;;;10.50;10.00;34.30;19.50;;;;;;675249;29;6330;-78
2021/08/19 01:12:08;;;;;;;;;10.25;10.25;34.30;19.40;;;;;;673875;29;6612;-79
2021/08/19 01:12:29;;;;;;;;;9.80;9.40;34.30;19.40;;;;;;673721;29;7078;-79
2021/08/19 01:12:50;;;;;;;;;10.00;9.75;34.30;19.50;;;;;;673860;29;6203;-80
2021/08/19 01:13:11;;;;;;;;;10.00;9.00;34.30;19.50;;;;;;673788;29;6312;-81
2021/08/19 01:13:33;;;;;;;;;11.00;10.20;34.30;19.60;;;;;;673636;29;6291;-80
2021/08/19 01:13:54;;;;;;;;;10.50;9.00;34.30;19.50;;;;;;675315;29;6340;-79
2021/08/19 01:14:15;;;;;;;;;12.33;11.00;34.30;19.50;;;;;;672405;29;6215;-78
2021/08/19 01:14:39;;;;;;;;;13.00;11.50;34.30;19.50;;;;;;671336;29;6882;-77
2021/08/19 01:15:00;;;;;;;;;11.00;10.00;34.30;19.50;;;;;;672714;29;6332;-78
2021/08/19 01:15:22;;;;;;;;;11.50;10.00;34.30;19.50;;;;;;669451;29;6166;-79
2021/08/19 01:15:45;;;;;;;;;10.20;9.80;34.30;19.50;;;;;;670233;29;6300;-79
2021/08/19 01:16:06;;;;;;;;;11.60;9.80;34.30;19.50;;;;;;671217;29;6149;-79
2021/08/19 01:16:28;;;;;;;;;12.25;12.25;34.30;19.50;;;;;;673354;29;6124;-80
2021/08/19 01:16:49;;;;;;;;;11.00;11.00;34.30;19.50;;;;;;672527;29;7185;-80
2021/08/19 01:17:14;;;;;;;;;9.20;9.20;34.30;19.50;;;;;;674855;29;6168;-78
2021/08/19 01:17:35;;;;;;;;;10.00;10.00;34.30;19.60;;;;;;673833;29;6687;-79
2021/08/19 01:18:00;;;;;;;;;9.00;9.00;34.30;19.50;;;;;;674880;29;6024;-78
2021/08/19 01:18:20;;;;;;;;;14.40;13.00;34.30;19.50;;;;;;675309;29;7060;-78
2021/08/19 01:18:44;;;;;;;;;12.00;10.00;34.30;19.60;;;;;;675424;29;6056;-79
2021/08/19 01:19:04;;;;;;;;;12.00;11.25;34.30;19.60;;;;;;675147;29;6734;-78
2021/08/19 01:19:25;;;;;;;;;10.00;10.00;34.30;19.60;;;;;;675904;29;6067;-79
2021/08/19 01:19:48;;;;;;;;;12.80;11.20;34.30;19.60;;;;;;675442;29;6054;-77
2021/08/19 01:20:09;;;;;;;;;11.80;11.80;34.30;19.60;;;;;;675743;29;6845;-79
2021/08/19 01:20:32;;;;;;;;;10.00;10.00;34.30;19.50;;;;;;674286;29;6182;-78
2021/08/19 01:20:55;;;;;;;;;10.75;10.00;34.30;19.50;;;;;;674018;29;6528;-78
2021/08/19 01:21:16;;;;;;;;;9.40;8.40;33.50;19.20;;;;;;673590;29;6828;-79
2021/08/19 01:21:37;;;;;;;;;11.75;9.75;34.30;19.60;;;;;;675596;29;6319;-79
2021/08/19 01:21:58;;;;;;;;;10.00;10.00;34.30;19.60;;;;;;675683;29;6279;-80
2021/08/19 01:22:20;;;;;;;;;11.00;10.00;34.30;19.60;;;;;;675574;29;6175;-77
2021/08/19 01:22:41;;;;;;;;;11.00;10.00;34.30;19.60;;;;;;675251;29;6600;-78
2021/08/19 01:23:02;;;;;;;;;12.75;11.75;34.30;20.50;;;;;;672857;29;6105;-78
2021/08/19 01:23:23;;;;;;;;;13.20;12.00;34.30;19.60;;;;;;672638;29;6299;-80
2021/08/19 01:23:44;;;;;;;;;13.75;11.00;34.40;19.60;;;;;;671356;29;6182;-80
2021/08/19 01:24:05;;;;;;;;;14.00;11.00;34.30;19.70;;;;;;670848;29;6967;-79
2021/08/19 01:24:25;;;;;;;;;13.00;10.25;34.30;19.70;;;;;;670985;29;6154;-79
2021/08/19 01:24:46;;;;;;;;;11.50;10.50;34.30;19.60;;;;;;671363;29;6145;-81
2021/08/19 01:25:11;;;;;;;;;11.00;10.00;34.30;19.60;;;;;;673666;29;6188;-79
2021/08/19 01:25:32;;;;;;;;;11.00;9.40;34.30;19.70;;;;;;673762;29;6403;-79
2021/08/19 01:25:53;;;;;;;;;10.00;10.00;34.30;19.60;;;;;;674060;29;5995;-80
2021/08/19 01:26:16;;;;;;;;;10.00;9.60;34.30;19.50;;;;;;673346;29;7013;-79
2021/08/19 01:26:38;;;;;;;;;10.00;10.00;34.30;19.60;;;;;;673768;29;6959;-80
2021/08/19 01:27:00;;;;;;;;;11.00;10.40;34.30;19.50;;;;;;673818;29;6592;-77
2021/08/19 01:27:22;;;;;;;;;10.60;10.60;34.30;19.60;;;;;;673787;29;6218;-80
2021/08/19 01:27:42;;;;;;;;;12.60;11.80;34.40;19.60;;;;;;673842;29;6211;-80
2021/08/19 01:28:04;;;;;;;;;13.00;11.67;34.30;19.60;;;;;;675354;29;6107;-78
2021/08/19 01:28:27;;;;;;;;;11.80;11.00;34.30;19.60;;;;;;674718;29;7166;-78
2021/08/19 01:28:49;;;;;;;;;12.00;11.20;34.30;19.70;;;;;;674832;29;6275;-79
2021/08/19 01:29:10;;;;;;;;;11.40;10.60;34.30;19.60;;;;;;673825;29;6341;-78
2021/08/19 01:29:31;;;;;;;;;9.00;9.00;34.30;19.70;;;;;;673964;29;6055;-78
2021/08/19 01:29:52;;;;;;;;;11.60;11.00;34.30;19.60;;;;;;673861;29;6135;-79
2021/08/19 01:30:13;;;;;;;;;10.75;10.00;34.30;19.70;;;;;;674372;29;6108;-78
2021/08/19 01:30:33;;;;;;;;;11.60;11.00;34.30;19.70;;;;;;673500;29;6156;-78
2021/08/19 01:30:54;;;;;;;;;11.00;10.00;34.30;19.80;;;;;;674110;29;6550;-80
2021/08/19 01:31:19;;;;;;;;;10.00;10.00;34.30;19.70;;;;;;674529;28;6788;-79
2021/08/19 01:31:40;;;;;;;;;11.00;11.00;34.30;19.70;;;;;;687494;28;6284;-78
2021/08/19 01:32:04;;;;;;;;;9.00;9.00;34.30;19.70;;;;;;687396;28;6302;-79
2021/08/19 01:32:26;;;;;;;;;12.00;12.00;34.30;19.70;;;;;;686945;28;7344;-78
2021/08/19 01:32:47;;;;;;;;;8.60;8.60;34.30;19.70;;;;;;687378;28;6285;-78
2021/08/19 01:33:08;;;;;;;;;9.60;9.60;34.30;19.70;;;;;;688060;28;6771;-76
2021/08/19 01:33:30;;;;;;;;;9.00;9.00;34.30;19.80;;;;;;684925;28;6537;-76
2021/08/19 01:33:51;;;;;;;;;10.75;10.75;34.30;19.70;;;;;;685011;28;6024;-78
2021/08/19 01:34:12;;;;;;;;;10.20;9.60;34.30;19.80;;;;;;684178;28;6234;-77
2021/08/19 01:34:33;;;;;;;;;11.75;10.75;34.30;19.90;;;;;;685010;28;7255;-78
2021/08/19 01:34:53;;;;;;;;;14.00;12.00;34.30;19.80;;;;;;684387;28;6122;-78
2021/08/19 01:35:25;;;;;;;;;12.60;11.00;34.30;19.80;;;;;;684978;28;5959;-77
2021/08/19 01:35:49;;;;;;;;;10.25;10.25;34.30;19.70;;;;;;686651;28;6319;-77
2021/08/19 01:36:11;;;;;;;;;10.00;10.00;34.30;19.80;;;;;;684099;28;6401;-79
2021/08/19 01:36:32;;;;;;;;;10.00;10.00;34.30;19.90;;;;;;685005;28;6504;-76
2021/08/19 01:36:53;;;;;;;;;9.20;9.20;34.30;19.80;;;;;;684933;28;6078;-77
2021/08/19 01:37:16;;;;;;;;;11.00;11.00;34.30;19.80;;;;;;685149;28;6267;-78
2021/08/19 01:37:37;;;;;;;;;11.50;11.00;34.30;19.80;;;;;;686279;28;6277;-77
2021/08/19 01:38:01;;;;;;;;;13.25;11.25;34.30;19.90;;;;;;685896;28;5993;-78
2021/08/19 01:38:29;;;;;;;;;10.60;10.60;34.30;19.80;;;;;;686906;28;6770;-78
2021/08/19 01:38:51;;;;;;;;;10.20;10.00;34.30;19.80;;;;;;686723;28;6578;-78
2021/08/19 01:39:11;;;;;;;;;11.80;10.80;34.30;19.80;;;;;;687250;28;6075;-77
2021/08/19 01:39:33;;;;;;;;;9.80;9.20;34.40;19.90;;;;;;686749;28;6646;-77
2021/08/19 01:39:54;;;;;;;;;9.00;8.20;34.30;19.90;;;;;;686542;28;6059;-77
2021/08/19 01:40:16;;;;;;;;;11.25;11.25;34.30;19.80;;;;;;686668;28;6133;-78
2021/08/19 01:40:36;;;;;;;;;7.00;7.00;34.30;19.80;;;;;;686878;28;6154;-79
2021/08/19 01:40:58;;;;;;;;;8.60;8.60;34.30;19.80;;;;;;686657;28;5977;-78
2021/08/19 01:41:19;;;;;;;;;11.75;11.75;34.30;19.90;;;;;;686993;28;5943;-78
2021/08/19 01:41:40;;;;;;;;;12.00;11.60;34.30;19.90;;;;;;686973;28;5955;-78
2021/08/19 01:42:01;;;;;;;;;12.75;12.00;34.30;19.90;;;;;;687268;28;5183;-78
2021/08/19 01:42:21;;;;;;;;;9.80;9.00;34.30;19.90;;;;;;687018;28;5936;-78
2021/08/19 01:42:43;;;;;;;;;9.00;8.75;34.30;19.80;;;;;;686855;28;5986;-79
2021/08/19 01:43:10;;;;;;;;;9.00;8.60;34.30;19.90;;;;;;687197;28;6295;-78
2021/08/19 01:43:32;;;;;;;;;10.00;10.00;34.30;19.90;;;;;;686368;28;6289;-78
2021/08/19 01:43:53;;;;;;;;;10.00;10.00;34.30;19.90;;;;;;686995;28;5883;-77
2021/08/19 01:44:18;;;;;;;;;11.00;10.00;34.30;19.90;;;;;;687761;28;6372;-79
2021/08/19 01:44:41;;;;;;;;;11.40;11.40;34.30;19.90;;;;;;688675;28;6353;-79
2021/08/19 01:45:02;;;;;;;;;11.80;10.80;34.30;19.90;;;;;;687031;28;6714;-79
2021/08/19 01:45:25;;;;;;;;;10.80;10.80;34.30;19.80;;;;;;686999;28;5910;-79
2021/08/19 01:45:46;;;;;;;;;10.00;10.00;34.30;19.90;;;;;;688114;28;6636;-77
2021/08/19 01:46:12;;;;;;;;;9.75;8.75;34.30;19.90;;;;;;687038;28;6055;-79
2021/08/19 01:46:33;;;;;;;;;11.25;11.25;34.30;19.90;;;;;;686990;28;6190;-80
2021/08/19 01:46:58;;;;;;;;;10.60;10.20;34.30;19.80;;;;;;686693;28;5983;-80
2021/08/19 01:47:21;;;;;;;;;11.40;10.60;34.30;19.70;;;;;;686937;28;6358;-77
2021/08/19 01:47:42;;;;;;;;;11.00;11.00;34.30;20.00;;;;;;686879;28;6534;-78
2021/08/19 01:48:03;;;;;;;;;12.50;11.50;34.30;19.90;;;;;;687038;28;5807;-77
2021/08/19 01:48:24;;;;;;;;;14.00;11.00;34.30;19.90;;;;;;687075;28;6017;-78
2021/08/19 01:48:49;;;;;;;;;12.00;11.00;34.30;20.00;;;;;;687327;28;6074;-79
2021/08/19 01:49:10;;;;;;;;;14.40;14.00;34.30;19.90;;;;;;687205;28;6293;-79
2021/08/19 01:49:33;;;;;;;;;12.00;12.00;34.30;20.00;;;;;;687159;28;6776;-79
2021/08/19 01:49:53;;;;;;;;;10.50;10.00;34.30;19.90;;;;;;687423;28;6091;-78
2021/08/19 01:50:14;;;;;;;;;10.50;10.50;34.60;20.00;;;;;;687817;28;6012;-78
2021/08/19 01:50:35;;;;;;;;;10.00;10.00;34.40;20.00;;;;;;687362;28;6410;-79
2021/08/19 01:50:56;;;;;;;;;13.00;11.40;34.40;20.00;;;;;;687665;28;6044;-79
2021/08/19 01:51:17;;;;;;;;;12.00;12.00;34.40;19.90;;;;;;687302;28;6025;-78
2021/08/19 01:51:38;;;;;;;;;10.50;10.00;34.40;19.90;;;;;;686698;28;6257;-80
2021/08/19 01:52:03;;;;;;;;;10.50;10.00;34.40;19.80;;;;;;687717;28;6032;-77
2021/08/19 01:52:24;;;;;;;;;11.60;11.60;34.40;19.90;;;;;;688098;28;6395;-79
2021/08/19 01:52:47;;;;;;;;;11.80;11.00;34.40;20.00;;;;;;687156;28;5985;-78
2021/08/19 01:53:11;;;;;;;;;13.00;12.00;34.40;20.00;;;;;;687366;28;6251;-78
2021/08/19 01:53:37;;;;;;;;;10.80;10.80;34.40;19.90;;;;;;687383;28;6704;-78
2021/08/19 01:53:58;;;;;;;;;9.80;9.80;34.60;19.90;;;;;;687062;28;6400;-76